createdAt,value
2022-09-10T00:00:28.063Z,13.90
2022-09-10T00:03:01.787Z,13.80
2022-09-10T00:05:41.318Z,13.80
2022-09-10T00:08:13.426Z,13.80
2022-09-10T00:10:50.761Z,13.70
2022-09-10T00:13:23.377Z,13.70
2022-09-10T00:15:55.053Z,13.70
2022-09-10T00:18:26.803Z,13.70
2022-09-10T00:20:59.855Z,13.70
2022-09-10T00:23:31.537Z,13.70
2022-09-10T00:26:16.071Z,13.60
2022-09-10T00:28:49.267Z,13.60
2022-09-10T00:31:22.542Z,13.60
2022-09-10T00:33:54.858Z,13.60
2022-09-10T00:36:29.585Z,13.50
2022-09-10T00:39:03.842Z,13.60
2022-09-10T00:41:38.075Z,13.60
2022-09-10T00:44:39.423Z,13.50
2022-09-10T00:47:18.706Z,13.50
2022-09-10T00:50:16.003Z,13.50
2022-09-10T00:52:48.826Z,13.60
2022-09-10T00:55:21.154Z,13.60
2022-09-10T00:57:56.550Z,13.60
2022-09-10T01:00:28.266Z,13.60
2022-09-10T01:03:00.231Z,13.70
2022-09-10T01:05:32.702Z,13.70
2022-09-10T01:08:05.204Z,13.60
2022-09-10T01:10:59.931Z,13.60
2022-09-10T01:13:37.516Z,13.50
2022-09-10T01:16:12.188Z,13.50
2022-09-10T01:19:09.435Z,13.40
2022-09-10T01:22:08.645Z,13.40
2022-09-10T01:25:00.679Z,13.40
2022-09-10T01:27:42.995Z,13.40
2022-09-10T01:30:34.791Z,13.40
2022-09-10T01:33:15.307Z,13.50
2022-09-10T01:35:53.662Z,13.60
2022-09-10T01:38:38.429Z,13.70
2022-09-10T01:41:10.477Z,13.70
2022-09-10T01:43:42.218Z,13.70
2022-09-10T01:46:26.191Z,13.80
2022-09-10T01:49:29.959Z,13.80
2022-09-10T01:52:22.216Z,13.80
2022-09-10T01:55:20.203Z,13.80
2022-09-10T01:58:34.612Z,13.80
2022-09-10T02:01:24.686Z,13.80
2022-09-10T02:04:01.297Z,13.80
2022-09-10T02:06:38.183Z,13.80
2022-09-10T02:09:10.658Z,13.80
2022-09-10T02:11:47.317Z,13.80
2022-09-10T02:14:21.671Z,13.80
2022-09-10T02:16:58.803Z,13.80
2022-09-10T02:19:30.571Z,13.80
2022-09-10T02:22:03.011Z,13.80
2022-09-10T02:24:34.803Z,13.80
2022-09-10T02:27:06.474Z,13.70
2022-09-10T02:29:39.835Z,13.70
2022-09-10T02:32:11.517Z,13.80
2022-09-10T02:34:43.211Z,13.80
2022-09-10T02:37:16.808Z,13.80
2022-09-10T02:39:48.607Z,13.80
2022-09-10T02:42:20.342Z,13.70
2022-09-10T02:44:53.195Z,13.80
2022-09-10T02:47:24.937Z,13.70
2022-09-10T02:49:56.631Z,13.70
2022-09-10T02:52:29.203Z,13.70
2022-09-10T02:55:01.355Z,13.60
2022-09-10T02:57:33.070Z,13.70
2022-09-10T03:00:05.995Z,13.70
2022-09-10T03:02:37.820Z,13.70
2022-09-10T03:05:09.750Z,13.70
2022-09-10T03:07:41.525Z,13.60
2022-09-10T03:10:13.355Z,13.60
2022-09-10T03:12:45.690Z,13.70
2022-09-10T03:15:20.456Z,13.70
2022-09-10T03:17:52.742Z,13.70
2022-09-10T03:20:25.316Z,13.70
2022-09-10T03:22:57.215Z,13.70
2022-09-10T03:25:29.271Z,13.60
2022-09-10T03:28:00.971Z,13.60
2022-09-10T03:30:32.838Z,13.60
2022-09-10T03:33:04.706Z,13.60
2022-09-10T03:35:36.359Z,13.60
2022-09-10T03:38:08.043Z,13.60
2022-09-10T03:40:40.395Z,13.60
2022-09-10T03:43:13.018Z,13.60
2022-09-10T03:45:44.748Z,13.60
2022-09-10T03:48:17.386Z,13.60
2022-09-10T03:50:51.218Z,13.70
2022-09-10T03:53:23.749Z,13.70
2022-09-10T03:55:55.736Z,13.60
2022-09-10T03:58:28.635Z,13.60
2022-09-10T04:01:00.330Z,13.60
2022-09-10T04:03:32.075Z,13.60
2022-09-10T04:06:03.856Z,13.60
2022-09-10T04:08:35.571Z,13.60
2022-09-10T04:11:07.286Z,13.60
2022-09-10T04:13:39.310Z,13.50
2022-09-10T04:16:11.938Z,13.50
2022-09-10T04:18:43.766Z,13.50
2022-09-10T04:21:15.787Z,13.60
2022-09-10T04:23:47.647Z,13.50
2022-09-10T04:26:20.387Z,13.50
2022-09-10T04:28:53.467Z,13.50
2022-09-10T04:31:25.295Z,13.40
2022-09-10T04:33:57.054Z,13.40
2022-09-10T04:36:29.124Z,13.40
2022-09-10T04:39:00.782Z,13.40
2022-09-10T04:41:32.491Z,13.40
2022-09-10T04:44:04.237Z,13.40
2022-09-10T04:46:36.398Z,13.40
2022-09-10T04:49:08.266Z,13.50
2022-09-10T04:51:39.974Z,13.50
2022-09-10T04:54:14.330Z,13.50
2022-09-10T04:56:47.419Z,13.50
2022-09-10T04:59:19.218Z,13.50
2022-09-10T05:01:51.102Z,13.50
2022-09-10T05:04:22.778Z,13.50
2022-09-10T05:06:54.457Z,13.50
2022-09-10T05:09:31.007Z,13.50
2022-09-10T05:12:03.683Z,13.60
2022-09-10T05:14:35.334Z,13.70
2022-09-10T05:17:07.037Z,13.70
2022-09-10T05:19:38.760Z,13.70
2022-09-10T05:22:10.447Z,13.60
2022-09-10T05:24:43.042Z,13.70
2022-09-10T05:27:14.703Z,13.80
2022-09-10T05:29:46.435Z,13.80
2022-09-10T05:32:18.866Z,13.90
2022-09-10T05:34:50.635Z,13.90
2022-09-10T05:37:22.293Z,13.80
2022-09-10T05:39:54.026Z,13.80
2022-09-10T05:42:26.461Z,13.80
2022-09-10T05:44:58.151Z,13.80
2022-09-10T05:47:30.043Z,13.80
2022-09-10T05:50:01.883Z,13.80
2022-09-10T05:52:33.664Z,13.80
2022-09-10T05:55:06.014Z,13.80
2022-09-10T05:57:37.763Z,13.80
2022-09-10T06:00:10.586Z,13.80
2022-09-10T06:02:42.379Z,13.80
2022-09-10T06:05:15.215Z,13.80
2022-09-10T06:07:46.907Z,13.80
2022-09-10T06:10:19.852Z,13.90
2022-09-10T06:12:52.031Z,13.90
2022-09-10T06:15:24.822Z,13.90
2022-09-10T06:17:57.016Z,14.00
2022-09-10T06:20:28.682Z,14.10
2022-09-10T06:23:00.369Z,14.00
2022-09-10T06:25:32.391Z,14.00
2022-09-10T06:28:04.139Z,14.00
2022-09-10T06:30:36.404Z,14.10
2022-09-10T06:33:08.137Z,14.10
2022-09-10T06:35:39.798Z,14.10
2022-09-10T06:38:11.447Z,14.10
2022-09-10T06:40:55.470Z,14.20
2022-09-10T06:43:28.348Z,14.20
2022-09-10T06:46:00.257Z,14.30
2022-09-10T06:48:48.390Z,14.30
2022-09-10T06:51:20.314Z,14.30
2022-09-10T06:53:52.487Z,14.40
2022-09-10T06:56:24.450Z,14.40
2022-09-10T06:59:00.366Z,14.40
2022-09-10T07:01:34.031Z,14.50
2022-09-10T07:04:06.831Z,14.50
2022-09-10T07:06:38.884Z,14.60
2022-09-10T07:09:10.635Z,14.70
2022-09-10T07:11:42.476Z,14.70
2022-09-10T07:14:14.352Z,14.80
2022-09-10T07:16:47.123Z,14.80
2022-09-10T07:19:18.990Z,14.90
2022-09-10T07:21:50.771Z,15.00
2022-09-10T07:24:22.543Z,15.20
2022-09-10T07:26:54.186Z,15.30
2022-09-10T07:29:31.134Z,15.40
2022-09-10T07:32:04.399Z,15.50
2022-09-10T07:34:37.635Z,15.60
2022-09-10T07:37:09.638Z,15.70
2022-09-10T07:39:41.454Z,15.60
2022-09-10T07:42:13.230Z,15.70
2022-09-10T07:44:44.978Z,15.80
2022-09-10T07:47:16.946Z,16.00
2022-09-10T07:49:48.944Z,16.10
2022-09-10T07:52:20.709Z,16.10
2022-09-10T07:54:52.443Z,16.10
2022-09-10T07:57:24.175Z,16.20
2022-09-10T07:59:55.839Z,16.10
2022-09-10T08:02:27.644Z,15.90
2022-09-10T08:04:59.358Z,15.90
2022-09-10T08:07:31.294Z,15.80
2022-09-10T08:10:05.132Z,15.80
2022-09-10T08:12:38.700Z,15.70
2022-09-10T08:15:11.053Z,15.70
2022-09-10T08:17:42.899Z,15.90
2022-09-10T08:20:15.098Z,16.10
2022-09-10T08:22:49.330Z,16.30
2022-09-10T08:25:21.552Z,16.60
2022-09-10T08:27:54.330Z,16.70
2022-09-10T08:30:26.901Z,16.80
2022-09-10T08:32:58.551Z,17.00
2022-09-10T08:35:30.222Z,17.20
2022-09-10T08:38:01.882Z,17.20
2022-09-10T08:40:33.534Z,17.20
2022-09-10T08:43:05.606Z,17.20
2022-09-10T08:45:38.439Z,17.30
2022-09-10T08:48:23.802Z,17.20
2022-09-10T08:51:10.742Z,17.20
2022-09-10T08:53:59.830Z,17.30
2022-09-10T08:56:33.047Z,17.40
2022-09-10T08:59:40.592Z,17.50
2022-09-10T09:02:37.845Z,17.50
2022-09-10T09:05:17.942Z,17.70
2022-09-10T09:07:51.050Z,17.80
2022-09-10T09:10:25.558Z,17.90
2022-09-10T09:13:32.127Z,17.90
2022-09-10T09:16:16.146Z,17.90
2022-09-10T09:19:06.634Z,17.70
2022-09-10T09:21:53.803Z,17.50
2022-09-10T09:24:58.315Z,17.40
2022-09-10T09:27:36.189Z,17.30
2022-09-10T09:30:33.731Z,17.30
2022-09-10T09:33:14.107Z,17.30
2022-09-10T09:35:59.026Z,17.30
2022-09-10T09:38:47.311Z,17.30
2022-09-10T09:41:39.699Z,17.30
2022-09-10T09:44:42.302Z,17.30
2022-09-10T09:47:14.026Z,17.30
2022-09-10T09:49:45.918Z,17.30
2022-09-10T09:52:26.378Z,17.30
2022-09-10T09:55:14.309Z,17.30
2022-09-10T09:57:47.276Z,17.40
2022-09-10T10:00:35.965Z,17.60
2022-09-10T10:03:20.464Z,17.90
2022-09-10T10:06:08.554Z,18.10
2022-09-10T10:08:41.485Z,18.20
2022-09-10T10:11:20.274Z,18.10
2022-09-10T10:13:52.930Z,18.00
2022-09-10T10:16:35.568Z,18.00
2022-09-10T10:19:38.616Z,17.80
2022-09-10T10:22:19.290Z,17.90
2022-09-10T10:24:54.011Z,18.20
2022-09-10T10:27:41.419Z,19.00
2022-09-10T10:30:21.262Z,19.60
2022-09-10T10:32:57.013Z,19.80
2022-09-10T10:35:35.735Z,19.70
2022-09-10T10:38:07.374Z,19.60
2022-09-10T10:40:49.247Z,19.80
2022-09-10T10:43:29.330Z,19.90
2022-09-10T10:46:07.638Z,20.40
2022-09-10T10:48:52.651Z,21.20
2022-09-10T10:51:35.830Z,21.60
2022-09-10T10:55:07.566Z,22.20
2022-09-10T10:58:16.722Z,23.00
2022-09-10T11:01:07.370Z,23.10
2022-09-10T11:03:48.847Z,22.50
2022-09-10T11:06:24.623Z,21.40
2022-09-10T11:09:10.327Z,21.60
2022-09-10T11:11:55.842Z,22.50
2022-09-10T11:14:51.199Z,23.30
2022-09-10T11:17:27.325Z,23.30
2022-09-10T11:20:28.843Z,22.50
2022-09-10T11:23:18.320Z,21.70
2022-09-10T11:26:14.300Z,21.70
2022-09-10T11:29:25.342Z,21.20
2022-09-10T11:32:21.485Z,20.90
2022-09-10T11:35:19.682Z,20.60
2022-09-10T11:38:04.499Z,20.20
2022-09-10T11:40:52.337Z,19.80
2022-09-10T11:43:52.457Z,19.80
2022-09-10T11:47:08.979Z,19.90
2022-09-10T11:49:48.457Z,19.90
2022-09-10T11:52:22.124Z,19.80
2022-09-10T11:54:55.487Z,19.90
2022-09-10T11:57:47.763Z,19.90
2022-09-10T12:00:20.371Z,19.90
2022-09-10T12:03:13.690Z,20.00
2022-09-10T12:06:07.201Z,19.90
2022-09-10T12:09:04.914Z,19.70
2022-09-10T12:12:15.151Z,19.90
2022-09-10T12:14:47.497Z,19.80
2022-09-10T12:17:47.959Z,19.70
2022-09-10T12:20:33.143Z,19.60
2022-09-10T12:23:06.155Z,19.30
2022-09-10T12:25:38.484Z,19.30
2022-09-10T12:28:42.241Z,19.40
2022-09-10T12:31:19.890Z,19.50
2022-09-10T12:33:51.602Z,19.70
2022-09-10T12:36:26.025Z,19.70
2022-09-10T12:39:23.961Z,19.90
2022-09-10T12:42:20.383Z,20.30
2022-09-10T12:44:52.448Z,20.50
2022-09-10T12:47:50.775Z,20.60
2022-09-10T12:50:30.082Z,20.50
2022-09-10T12:53:25.943Z,20.30
2022-09-10T12:56:15.773Z,20.10
2022-09-10T12:59:21.246Z,20.10
2022-09-10T13:01:54.322Z,19.90
2022-09-10T13:04:29.869Z,19.60
2022-09-10T13:07:19.251Z,19.50
2022-09-10T13:10:22.101Z,19.50
2022-09-10T13:12:59.532Z,19.50
2022-09-10T13:15:37.894Z,19.50
2022-09-10T13:18:21.679Z,19.70
2022-09-10T13:20:53.661Z,19.80
2022-09-10T13:23:50.032Z,19.80
2022-09-10T13:26:34.073Z,19.60
2022-09-10T13:29:29.570Z,19.50
2022-09-10T13:32:16.267Z,19.50
2022-09-10T13:35:21.758Z,19.50
2022-09-10T13:38:15.227Z,19.40
2022-09-10T13:41:27.961Z,19.60
2022-09-10T13:44:26.973Z,19.70
2022-09-10T13:47:04.427Z,19.70
2022-09-10T13:50:02.477Z,19.70
2022-09-10T13:52:36.236Z,19.60
2022-09-10T13:55:08.556Z,19.70
2022-09-10T13:57:43.572Z,19.60
2022-09-10T14:00:23.621Z,19.50
2022-09-10T14:03:00.405Z,19.20
2022-09-10T14:05:52.027Z,19.20
2022-09-10T14:08:39.211Z,19.20
2022-09-10T14:11:13.970Z,19.30
2022-09-10T14:13:54.178Z,19.40
2022-09-10T14:16:40.926Z,19.40
2022-09-10T14:19:21.824Z,19.50
2022-09-10T14:21:54.601Z,19.40
2022-09-10T14:24:51.377Z,19.30
2022-09-10T14:27:34.939Z,19.10
2022-09-10T14:30:24.870Z,18.90
2022-09-10T14:33:25.365Z,18.90
2022-09-10T14:35:58.984Z,18.80
2022-09-10T14:38:34.625Z,18.90
2022-09-10T14:41:28.114Z,19.10
2022-09-10T14:44:20.380Z,19.20
2022-09-10T14:47:01.101Z,19.30
2022-09-10T14:49:35.266Z,19.40
2022-09-10T14:52:07.869Z,19.40
2022-09-10T14:54:39.587Z,19.30
2022-09-10T14:57:15.887Z,19.10
2022-09-10T14:59:47.638Z,19.00
2022-09-10T15:02:27.091Z,19.00
2022-09-10T15:04:58.809Z,19.00
2022-09-10T15:07:30.475Z,19.00
2022-09-10T15:10:02.207Z,18.90
2022-09-10T15:12:35.043Z,19.00
2022-09-10T15:15:15.269Z,18.90
2022-09-10T15:17:48.869Z,18.90
2022-09-10T15:20:27.145Z,18.90
2022-09-10T15:22:59.550Z,18.90
2022-09-10T15:25:38.889Z,19.00
2022-09-10T15:28:10.744Z,18.90
2022-09-10T15:30:42.560Z,18.90
2022-09-10T15:33:14.675Z,18.90
2022-09-10T15:35:47.909Z,18.80
2022-09-10T15:38:21.206Z,18.70
2022-09-10T15:41:02.886Z,18.60
2022-09-10T15:43:37.772Z,18.40
2022-09-10T15:46:10.913Z,18.30
2022-09-10T15:48:43.385Z,18.30
2022-09-10T15:51:24.059Z,18.10
2022-09-10T15:53:55.821Z,18.10
2022-09-10T15:56:27.562Z,18.10
2022-09-10T15:58:59.573Z,18.00
2022-09-10T16:01:32.290Z,18.10
2022-09-10T16:04:04.709Z,17.90
2022-09-10T16:06:39.276Z,17.90
2022-09-10T16:09:13.596Z,17.70
2022-09-10T16:11:45.465Z,17.60
2022-09-10T16:14:18.493Z,17.60
2022-09-10T16:16:51.045Z,17.40
2022-09-10T16:19:23.237Z,17.30
2022-09-10T16:21:54.935Z,17.30
2022-09-10T16:24:26.686Z,17.30
2022-09-10T16:26:58.309Z,17.30
2022-09-10T16:29:30.121Z,17.40
2022-09-10T16:32:02.054Z,17.30
2022-09-10T16:34:34.343Z,17.30
2022-09-10T16:37:06.609Z,17.20
2022-09-10T16:39:38.304Z,17.20
2022-09-10T16:42:10.062Z,17.20
2022-09-10T16:44:41.702Z,17.10
2022-09-10T16:47:14.145Z,17.20
2022-09-10T16:49:45.829Z,17.10
2022-09-10T16:52:17.569Z,17.10
2022-09-10T16:54:49.562Z,17.00
2022-09-10T16:57:21.227Z,16.80
2022-09-10T16:59:52.891Z,16.70
2022-09-10T17:02:25.065Z,16.60
2022-09-10T17:04:56.890Z,16.60
2022-09-10T17:07:28.571Z,16.50
2022-09-10T17:10:01.160Z,16.60
2022-09-10T17:12:33.089Z,16.60
2022-09-10T17:15:05.077Z,16.60
2022-09-10T17:17:36.809Z,16.60
2022-09-10T17:20:08.989Z,16.60
2022-09-10T17:22:40.621Z,16.60
2022-09-10T17:25:12.417Z,16.60
2022-09-10T17:27:44.082Z,16.60
2022-09-10T17:30:15.766Z,16.60
2022-09-10T17:32:47.903Z,16.50
2022-09-10T17:35:19.864Z,16.50
2022-09-10T17:37:51.965Z,16.50
2022-09-10T17:40:23.949Z,16.40
2022-09-10T17:42:55.606Z,16.40
2022-09-10T17:45:28.962Z,16.30
2022-09-10T17:48:00.709Z,16.30
2022-09-10T17:50:32.390Z,16.30
2022-09-10T17:53:04.133Z,16.30
2022-09-10T17:55:35.810Z,16.30
2022-09-10T17:58:07.455Z,16.20
2022-09-10T18:00:40.325Z,16.20
2022-09-10T18:03:12.898Z,16.20
2022-09-10T18:05:45.906Z,16.10
2022-09-10T18:08:17.755Z,16.10
2022-09-10T18:10:49.450Z,16.00
2022-09-10T18:13:21.279Z,16.00
2022-09-10T18:15:53.026Z,15.90
2022-09-10T18:18:24.986Z,15.90
2022-09-10T18:20:56.730Z,15.90
2022-09-10T18:23:28.869Z,15.80
2022-09-10T18:26:01.100Z,15.70
2022-09-10T18:28:32.754Z,15.70
2022-09-10T18:31:05.010Z,15.70
2022-09-10T18:33:38.885Z,15.60
2022-09-10T18:36:18.785Z,15.60
2022-09-10T18:38:51.047Z,15.60
2022-09-10T18:41:27.782Z,15.50
2022-09-10T18:44:02.111Z,15.50
2022-09-10T18:46:35.166Z,15.40
2022-09-10T18:49:07.146Z,15.40
2022-09-10T18:51:42.098Z,15.40
2022-09-10T18:54:16.322Z,15.30
2022-09-10T18:56:49.236Z,15.30
2022-09-10T18:59:23.215Z,15.30
2022-09-10T19:01:55.903Z,15.40
2022-09-10T19:04:29.410Z,15.30
2022-09-10T19:07:01.359Z,15.30
2022-09-10T19:09:33.865Z,15.30
2022-09-10T19:12:05.834Z,15.30
2022-09-10T19:14:37.523Z,15.30
2022-09-10T19:17:09.171Z,15.30
2022-09-10T19:19:40.830Z,15.30
2022-09-10T19:22:13.343Z,15.30
2022-09-10T19:25:00.810Z,15.30
2022-09-10T19:27:33.408Z,15.30
2022-09-10T19:30:06.357Z,15.30
2022-09-10T19:32:38.003Z,15.30
2022-09-10T19:35:11.347Z,15.20
2022-09-10T19:37:43.112Z,15.20
2022-09-10T19:40:14.980Z,15.20
2022-09-10T19:42:46.746Z,15.20
2022-09-10T19:45:18.487Z,15.20
2022-09-10T19:47:50.142Z,15.20
2022-09-10T19:50:23.444Z,15.20
2022-09-10T19:52:55.559Z,15.20
2022-09-10T19:55:27.276Z,15.20
2022-09-10T19:57:59.970Z,15.20
2022-09-10T20:00:46.393Z,15.20
2022-09-10T20:03:19.083Z,15.10
2022-09-10T20:05:50.731Z,15.10
2022-09-10T20:08:22.666Z,15.10
2022-09-10T20:10:54.536Z,15.10
2022-09-10T20:13:26.375Z,15.10
2022-09-10T20:16:02.626Z,15.10
2022-09-10T20:18:36.127Z,15.00
2022-09-10T20:21:16.091Z,14.90
2022-09-10T20:23:50.895Z,14.80
2022-09-10T20:26:27.095Z,14.80
2022-09-10T20:29:00.635Z,14.70
2022-09-10T20:31:35.423Z,14.70
2022-09-10T20:34:12.432Z,14.70
2022-09-10T20:36:44.348Z,14.70
2022-09-10T20:39:18.103Z,14.60
2022-09-10T20:41:50.123Z,14.60
2022-09-10T20:44:22.893Z,14.60
2022-09-10T20:46:54.589Z,14.60
2022-09-10T20:49:26.287Z,14.60
2022-09-10T20:51:59.383Z,14.50
2022-09-10T20:54:31.158Z,14.50
2022-09-10T20:57:02.826Z,14.50
2022-09-10T20:59:34.574Z,14.40
2022-09-10T21:02:08.374Z,14.40
2022-09-10T21:04:41.770Z,14.30
2022-09-10T21:07:13.479Z,14.30
2022-09-10T21:09:45.769Z,14.30
2022-09-10T21:12:17.674Z,14.30
2022-09-10T21:14:50.272Z,14.30
2022-09-10T21:17:22.362Z,14.30
2022-09-10T21:19:54.163Z,14.30
2022-09-10T21:22:25.811Z,14.20
2022-09-10T21:24:57.492Z,14.20
2022-09-10T21:27:29.190Z,14.30
2022-09-10T21:30:01.667Z,14.30
2022-09-10T21:32:34.416Z,14.30
2022-09-10T21:35:06.457Z,14.30
2022-09-10T21:37:38.226Z,14.40
2022-09-10T21:40:10.572Z,14.40
2022-09-10T21:42:42.306Z,14.40
2022-09-10T21:45:14.062Z,14.40
2022-09-10T21:47:45.822Z,14.30
2022-09-10T21:50:17.575Z,14.20
2022-09-10T21:52:49.338Z,14.10
2022-09-10T21:55:20.986Z,14.00
2022-09-10T21:57:52.658Z,14.00
2022-09-10T22:00:27.799Z,13.90
2022-09-10T22:02:59.618Z,13.90
2022-09-10T22:05:31.287Z,13.90
2022-09-10T22:08:02.964Z,13.80
2022-09-10T22:10:38.220Z,13.80
2022-09-10T22:13:12.581Z,13.80
2022-09-10T22:15:44.856Z,13.80
2022-09-10T22:18:17.204Z,13.70
2022-09-10T22:20:48.870Z,13.80
2022-09-10T22:23:20.659Z,13.80
2022-09-10T22:25:52.329Z,13.80
2022-09-10T22:28:24.006Z,13.80
2022-09-10T22:30:55.766Z,13.80
2022-09-10T22:33:27.447Z,13.80
2022-09-10T22:36:14.572Z,13.80
2022-09-10T22:38:54.570Z,13.80
2022-09-10T22:41:27.690Z,13.80
2022-09-10T22:43:59.707Z,13.70
2022-09-10T22:46:32.451Z,13.80
2022-09-10T22:49:05.115Z,13.80
2022-09-10T22:51:40.758Z,13.80
2022-09-10T22:54:13.055Z,13.70
2022-09-10T22:56:44.784Z,13.70
2022-09-10T22:59:16.691Z,13.70
2022-09-10T23:01:48.510Z,13.70
2022-09-10T23:04:20.274Z,13.70
2022-09-10T23:06:52.133Z,13.70
2022-09-10T23:09:23.794Z,13.70
2022-09-10T23:11:55.633Z,13.70
2022-09-10T23:14:27.657Z,13.60
2022-09-10T23:16:59.327Z,13.60
2022-09-10T23:19:31.683Z,13.60
2022-09-10T23:22:03.548Z,13.60
2022-09-10T23:24:35.459Z,13.60
2022-09-10T23:27:07.203Z,13.60
2022-09-10T23:29:38.955Z,13.70
2022-09-10T23:32:10.859Z,13.60
2022-09-10T23:34:42.738Z,13.70
2022-09-10T23:37:14.590Z,13.70
2022-09-10T23:39:46.520Z,13.70
2022-09-10T23:42:18.308Z,13.70
2022-09-10T23:44:49.953Z,13.70
2022-09-10T23:47:21.648Z,13.70
2022-09-10T23:49:53.380Z,13.70
2022-09-10T23:52:26.971Z,13.80
2022-09-10T23:54:58.665Z,13.80
2022-09-10T23:57:30.434Z,13.80
